Guilderland, NY (12084)

5:27 PM EDT on September 04, 2015 (GMT -0400)
Guilderland | | Change Station
CLOSE
Current Station
Personal Weather Station
Location: Albany, NY
Elevation: 305 ft
Nearby Weather Stations

Elev 305 ft 42.69 °N, 73.87 °W | Updated 3 seconds ago

Partly Cloudy
Partly Cloudy
82.9 °F
Feels Like 85 °F
N
3.1
Wind Variable Wind from SW
Gusts 3.1 mph

Today
High -- | Low -- °F
--% Chance of Precip.
Yesterday
High -- | Low -- °F
Precip. -- in
6:23 AM 7:25 PM
Waning Gibbous, 56% visible
Pressure 30.12 in
Visibility 10.0 miles
Clouds Few 4100 ft
Scattered Clouds 5000 ft
Scattered Clouds 25000 ft
Heat Index 85 °F
Dew Point 66 °F
Humidity 57%
Rainfall 0.00 in
Snow Depth Not available.
UV 2 out of 12
Pollen 8.80 out of 12
Air Quality Not available.
Flu Activity Not available.
METAR KALB 042051Z 21005KT 10SM FEW041 SCT050 SCT250 28/17 A3012 RMK AO2 SLP197 T02830172 55007
Pressure 30.12 in
Visibility 10.0 miles
Clouds Few 4100 ft
Scattered Clouds 5000 ft
Scattered Clouds 25000 ft
Heat Index 85 °F
Dew Point 66 °F
Humidity 57%
Rainfall 0.00 in
Snow Depth Not available.
UV 2 out of 12
Pollen 8.80 out of 12
Air Quality Not available.
Flu Activity Not available.
METAR KALB 042051Z 21005KT 10SM FEW041 SCT050 SCT250 28/17 A3012 RMK AO2 SLP197 T02830172 55007

10-Day Weather Forecast

×

Almanac

Astronomy

Sep. 04, 2015 Rise Set
Actual Time
Civil Twilight
Nautical Twilight
Astronomical Twilight
Moon
Length of Visible Light
Length of Day
Tomorrow will be .
, % of the Moon is Illuminated

Today's Extremes

State Highs State Lows

Community

WunderPhotos

Upload Photos

1,852,297 photos uploaded!

WunderBlogs® & News

Nearby

Air Quality

  Air Quality AQ Index Pollutant
Not available.

Snow Depth

Station Depth Elevation

Earthquake Activity

City Distance Mag. Time & Date
Minimum magnitude displayed is 2.5.

Coastal Water Temperatures

Place Temperature

Stations

Nearby Weather Stations

Station Location Temp. Windchill Dew Point Humidity Wind Precip. Elev Updated Type